Time;durP1;ratioP1;P1;durP2;ratioP2;P2;SDS_P1;SDS_P2;PMS_P1;PMS_P2;Temp;Humidity;BMP_temperature;BMP_pressure;BME280_temperature;BME280_humidity;BME280_pressure;Samples;Min_cycle;Max_cycle;Signal;HPM_P1;HPM_P2
2023/10/30 07:01:23;;;;;;;0.67;0.67;;;12.40;99.90;14.70;99602.00;;;;6215912;22;1447369;-74
2023/10/30 07:03:49;;;;;;;1.03;0.93;;;12.40;99.90;14.70;99602.00;;;;6251943;22;20464;-75
2023/10/30 07:06:15;;;;;;;1.43;0.60;;;12.40;99.90;14.90;99607.00;;;;6250961;22;20148;-74
2023/10/30 07:08:44;;;;;;;0.63;0.63;;;12.40;99.90;15.00;99612.00;;;;6277517;22;20147;-75
2023/10/30 07:11:11;;;;;;;0.20;0.20;;;12.40;99.90;15.10;99609.00;;;;6250894;22;20145;-75
2023/10/30 07:13:36;;;;;;;0.53;0.53;;;12.50;99.90;15.50;99587.00;;;;6251467;22;20166;-74
2023/10/30 07:16:03;;;;;;;0.50;0.50;;;12.60;99.90;15.20;99618.00;;;;6250353;22;20152;-74
2023/10/30 07:18:29;;;;;;;0.20;0.20;;;12.50;99.90;15.60;99615.00;;;;6250901;22;20147;-73
2023/10/30 07:20:55;;;;;;;0.20;0.20;;;12.70;99.90;16.00;99614.00;;;;6251304;22;20624;-73
2023/10/30 07:23:24;;;;;;;0.20;0.20;;;12.80;99.90;15.50;99597.00;;;;6251346;22;20145;-73
2023/10/30 07:25:50;;;;;;;0.30;0.30;;;12.80;99.90;15.90;99607.00;;;;6225982;22;20156;-73
2023/10/30 07:28:16;;;;;;;1.30;0.57;;;12.80;99.90;15.20;99620.00;;;;6250863;22;20151;-75
2023/10/30 07:30:42;;;;;;;0.20;0.20;;;12.80;99.90;15.50;99617.00;;;;6277724;22;20160;-76
2023/10/30 07:33:08;;;;;;;0.80;0.80;;;12.70;99.90;15.30;99627.00;;;;6277789;22;20605;-74
2023/10/30 07:35:34;;;;;;;1.13;1.03;;;12.70;99.90;15.70;99632.00;;;;6277307;22;20220;-73
2023/10/30 07:38:00;;;;;;;0.20;0.20;;;12.80;99.90;15.40;99639.00;;;;6250708;22;20145;-73
2023/10/30 07:40:26;;;;;;;0.20;0.20;;;12.80;99.90;15.30;99639.00;;;;6276807;22;20235;-73
2023/10/30 07:42:54;;;;;;;0.30;0.30;;;12.80;99.90;15.70;99647.00;;;;6251110;22;20147;-75
2023/10/30 07:45:20;;;;;;;0.20;0.20;;;12.80;99.90;15.50;99643.00;;;;6250654;22;20134;-76
2023/10/30 07:47:46;;;;;;;2.77;1.43;;;12.90;99.90;15.70;99658.00;;;;6275443;22;20747;-74
2023/10/30 07:50:12;;;;;;;0.20;0.20;;;13.10;99.90;15.50;99644.00;;;;6277811;22;20137;-75
2023/10/30 07:52:38;;;;;;;0.37;0.37;;;13.00;99.90;15.50;99578.00;;;;6250612;22;20265;-76
2023/10/30 07:55:05;;;;;;;0.40;0.40;;;13.00;99.90;15.20;99633.00;;;;6251244;22;20187;-75
2023/10/30 07:57:34;;;;;;;0.20;0.20;;;12.90;99.90;15.30;99624.00;;;;6251091;22;20148;-77
2023/10/30 08:00:00;;;;;;;0.30;0.30;;;12.90;99.90;15.60;99595.00;;;;6243207;23;20177;-76
2023/10/30 08:02:28;;;;;;;0.47;0.47;;;12.90;99.90;15.00;99573.00;;;;6194813;23;20168;-76
2023/10/30 08:04:55;;;;;;;0.97;0.60;;;12.80;99.90;15.30;99632.00;;;;6220543;23;20168;-76
2023/10/30 08:07:24;;;;;;;0.30;0.30;;;12.80;99.90;15.70;99637.00;;;;6220723;23;20173;-77
2023/10/30 08:09:52;;;;;;;0.87;0.70;;;13.00;99.90;15.60;99612.00;;;;6246030;23;20242;-77
2023/10/30 08:12:30;;;;;;;0.20;0.20;;;13.00;99.90;15.80;99650.00;;;;6245082;23;20223;-77
2023/10/30 08:14:56;;;;;;;0.20;0.20;;;13.00;99.90;15.20;99645.00;;;;6220116;23;20244;-78
2023/10/30 08:17:22;;;;;;;1.50;1.27;;;12.90;99.90;15.40;99647.00;;;;6220044;23;20571;-76
2023/10/30 08:19:50;;;;;;;0.70;0.70;;;12.90;99.90;15.60;99653.00;;;;6220443;23;20193;-77
2023/10/30 08:22:16;;;;;;;0.50;0.50;;;12.90;99.90;15.40;99641.00;;;;6195183;23;20187;-77
2023/10/30 08:24:42;;;;;;;0.40;0.27;;;13.00;99.90;15.60;99653.00;;;;6220151;23;20471;-77
2023/10/30 08:27:08;;;;;;;0.77;0.57;;;13.00;99.90;15.80;99633.00;;;;6218997;23;20146;-77
2023/10/30 08:29:37;;;;;;;0.20;0.20;;;13.00;99.90;15.30;99669.00;;;;6246891;23;20166;-77
2023/10/30 08:32:03;;;;;;;0.33;0.33;;;12.90;99.90;15.50;99651.00;;;;6245601;23;20224;-77
2023/10/30 08:34:29;;;;;;;0.30;0.30;;;12.90;99.90;15.10;99620.00;;;;6219955;23;20237;-78
2023/10/30 08:36:55;;;;;;;0.20;0.20;;;12.90;99.90;15.40;99644.00;;;;6220205;23;20582;-77
2023/10/30 08:39:30;;;;;;;0.37;0.37;;;12.90;99.90;15.80;99664.00;;;;6219994;23;20287;-76
2023/10/30 08:42:05;;;;;;;0.20;0.20;;;13.10;99.90;16.00;99647.00;;;;6219431;23;20145;-76
2023/10/30 08:44:33;;;;;;;0.80;0.80;;;13.20;99.90;15.90;99647.00;;;;6195367;23;20161;-76
2023/10/30 08:47:05;;;;;;;3.10;1.70;;;13.30;99.90;15.60;99658.00;;;;6195066;23;20245;-77
2023/10/30 08:49:32;;;;;;;0.20;0.20;;;13.20;99.90;15.60;99659.00;;;;6195047;23;20154;-78
2023/10/30 08:51:58;;;;;;;0.60;0.60;;;13.20;99.90;15.90;99664.00;;;;6220102;23;20185;-78
2023/10/30 08:54:46;;;;;;;0.20;0.20;;;13.30;99.90;16.00;99649.00;;;;6246778;23;20547;-78
2023/10/30 08:57:24;;;;;;;0.30;0.30;;;13.40;99.90;15.60;99643.00;;;;6220278;23;20195;-77
2023/10/30 08:59:52;;;;;;;0.20;0.20;;;13.40;99.90;15.80;99652.00;;;;6201863;22;20251;-77
2023/10/30 09:02:18;;;;;;;22.23;2.10;;;13.50;99.90;16.50;99645.00;;;;6250166;22;20160;-77
2023/10/30 09:04:45;;;;;;;0.87;0.57;;;13.60;99.90;16.30;99645.00;;;;6224810;22;20171;-78
2023/10/30 09:07:11;;;;;;;0.60;0.60;;;13.70;99.90;15.80;99640.00;;;;6277526;22;20156;-77
2023/10/30 09:09:38;;;;;;;0.50;0.50;;;13.60;99.90;16.10;99664.00;;;;6250121;22;20248;-78
2023/10/30 09:12:04;;;;;;;0.80;0.40;;;13.70;99.90;16.40;99602.00;;;;6276400;22;20643;-78
2023/10/30 09:14:30;;;;;;;0.93;0.63;;;13.70;99.90;16.30;99647.00;;;;6275752;22;20633;-77
2023/10/30 09:16:56;;;;;;;0.20;0.20;;;13.70;99.90;16.70;99655.00;;;;6276966;22;20138;-77
2023/10/30 09:19:22;;;;;;;0.70;0.70;;;13.80;99.90;16.20;99652.00;;;;6250296;22;20162;-78
2023/10/30 09:21:52;;;;;;;0.57;0.57;;;13.70;99.90;16.00;99636.00;;;;6223683;22;20160;-69
2023/10/30 09:24:18;;;;;;;0.20;0.20;;;13.50;99.90;16.30;99569.00;;;;6276960;22;20466;-75
2023/10/30 09:26:58;;;;;;;0.83;0.83;;;13.60;99.90;16.90;99632.00;;;;6250363;22;20242;-74
2023/10/30 09:29:32;;;;;;;0.20;0.20;;;13.70;99.90;16.60;99636.00;;;;6250138;22;20596;-74
2023/10/30 09:32:04;;;;;;;0.20;0.20;;;13.80;99.90;16.90;99642.00;;;;6225130;22;20173;-75
2023/10/30 09:34:31;;;;;;;2.20;1.63;;;13.80;99.90;17.30;99646.00;;;;6249749;22;20176;-72
2023/10/30 09:36:58;;;;;;;0.40;0.40;;;14.00;99.90;17.20;99648.00;;;;6249999;22;20233;-72
2023/10/30 09:39:24;;;;;;;0.20;0.20;;;14.10;99.90;16.80;99640.00;;;;6249985;22;20602;-74
2023/10/30 09:41:54;;;;;;;0.20;0.20;;;14.00;99.90;17.10;99635.00;;;;6249148;22;20158;-74
2023/10/30 09:44:34;;;;;;;0.30;0.30;;;14.00;99.90;17.20;99642.00;;;;6249653;22;20149;-74
2023/10/30 09:47:02;;;;;;;0.33;0.33;;;13.90;99.90;16.80;99639.00;;;;6248826;22;20141;-74
2023/10/30 09:49:29;;;;;;;0.30;0.30;;;14.00;99.90;16.90;99639.00;;;;6249502;22;20150;-74
2023/10/30 09:51:59;;;;;;;0.30;0.30;;;13.90;99.90;16.70;99625.00;;;;6223094;22;20187;-75
2023/10/30 09:54:26;;;;;;;0.30;0.30;;;13.80;99.90;16.60;99638.00;;;;6249556;22;20169;-76
2023/10/30 09:56:53;;;;;;;0.30;0.30;;;13.70;99.90;16.50;99586.00;;;;6224563;22;20601;-76
2023/10/30 09:59:22;;;;;;;0.40;0.40;;;13.60;99.90;15.90;99626.00;;;;6274536;22;20167;-76
2023/10/30 10:01:48;;;;;;;0.60;0.60;;;13.40;99.90;16.00;99634.00;;;;6219618;23;20585;-76
2023/10/30 10:04:15;;;;;;;0.30;0.30;;;13.40;99.90;16.00;99629.00;;;;6219039;23;20929;-76
2023/10/30 10:06:47;;;;;;;0.40;0.40;;;13.30;99.90;16.20;99637.00;;;;6246333;23;20609;-76
2023/10/30 10:09:14;;;;;;;0.30;0.30;;;13.30;99.90;16.00;99628.00;;;;6219325;23;20158;-75
2023/10/30 10:11:48;;;;;;;1.70;0.50;;;13.30;99.90;16.10;99628.00;;;;6245756;23;20142;-76
2023/10/30 10:14:14;;;;;;;0.40;0.40;;;13.30;99.90;16.20;99621.00;;;;6219401;23;20216;-75
2023/10/30 10:16:40;;;;;;;0.70;0.70;;;13.30;99.90;16.20;99579.00;;;;6244559;23;20694;-76
2023/10/30 10:19:20;;;;;;;0.80;0.80;;;13.20;99.90;16.10;99599.00;;;;6193371;23;20186;-74
2023/10/30 10:33:29;;;;;;;0.63;0.63;;;12.30;99.90;14.70;99679.00;;;;5075993;28;21160;-75
2023/10/30 10:36:00;;;;;;;0.70;0.70;;;12.50;99.90;15.10;99665.00;;;;5058770;28;20184;-74
2023/10/30 10:38:27;;;;;;;0.60;0.60;;;12.60;99.90;15.70;99643.00;;;;5055671;28;20640;-65
2023/10/30 10:40:55;;;;;;;0.70;0.70;;;12.80;99.90;16.20;99627.00;;;;5041064;28;20194;-68
2023/10/30 10:43:31;;;;;;;0.73;0.73;;;13.00;99.90;16.10;99628.00;;;;5055845;28;20658;-77
2023/10/30 10:46:00;;;;;;;0.87;0.87;;;13.00;99.90;15.90;99606.00;;;;5057298;28;20540;-76
2023/10/30 10:48:30;;;;;;;1.00;1.00;;;13.00;99.90;16.00;99568.00;;;;5040631;28;20206;-77
2023/10/30 10:51:04;;;;;;;0.70;0.70;;;13.10;99.90;16.30;99546.00;;;;5041290;28;20186;-77
2023/10/30 10:53:34;;;;;;;1.00;1.00;;;13.30;99.90;16.40;99585.00;;;;5058595;28;20638;-77
2023/10/30 10:56:04;;;;;;;0.80;0.80;;;13.30;99.90;16.40;99579.00;;;;5057084;28;20219;-77
2023/10/30 10:58:49;;;;;;;0.87;0.87;;;13.40;99.90;16.70;99550.00;;;;5057250;28;20970;-77
2023/10/30 11:01:38;;;;;;;1.27;1.27;;;13.50;99.90;16.20;99525.00;;;;5056149;28;21389;-77
2023/10/30 11:04:16;;;;;;;0.90;0.90;;;13.50;99.90;16.70;99534.00;;;;5057896;28;20181;-77
2023/10/30 11:07:33;;;;;;;0.80;0.80;;;13.50;99.90;16.80;99557.00;;;;5040596;28;20552;-77
2023/10/30 11:10:44;;;;;;;1.00;1.00;;;13.60;99.90;17.00;99567.00;;;;5040540;28;20228;-77
2023/10/30 11:13:43;;;;;;;3.00;1.17;;;13.60;99.90;16.90;99562.00;;;;5056459;28;20209;-77
2023/10/30 11:16:44;;;;;;;1.53;0.97;;;13.70;99.90;17.00;99555.00;;;;5057032;28;20186;-77
2023/10/30 11:19:38;;;;;;;1.13;1.07;;;13.70;99.90;16.60;99511.00;;;;5053367;28;20233;-77
2023/10/30 11:22:47;;;;;;;1.97;1.87;;;13.60;99.90;16.50;99516.00;;;;5056592;28;20232;-77
2023/10/30 11:25:39;;;;;;;1.53;1.07;;;13.70;99.90;16.40;99554.00;;;;5057551;28;20201;-77
2023/10/30 11:28:36;;;;;;;0.93;0.93;;;13.60;99.90;16.60;99545.00;;;;5050112;28;20191;-77
2023/10/30 11:31:34;;;;;;;0.90;0.90;;;13.60;99.90;16.90;99564.00;;;;5033538;28;20177;-77
2023/10/30 11:34:44;;;;;;;0.70;0.70;;;13.80;99.90;16.90;99537.00;;;;5055994;28;20268;-76
2023/10/30 11:37:39;;;;;;;1.43;1.43;;;13.70;99.90;16.60;99526.00;;;;5010328;28;20282;-76
2023/10/30 11:40:51;;;;;;;0.90;0.90;;;13.70;99.90;16.60;99495.00;;;;5051748;28;20194;-76
2023/10/30 11:43:28;;;;;;;0.93;0.93;;;13.60;99.90;16.70;99528.00;;;;5034564;28;20208;-76
2023/10/30 11:46:02;;;;;;;0.80;0.80;;;13.70;99.90;16.70;99522.00;;;;5040977;28;20750;-76
2023/10/30 11:48:37;;;;;;;0.80;0.80;;;13.70;99.90;17.30;99517.00;;;;5026763;28;20187;-76
2023/10/30 11:51:32;;;;;;;1.80;1.70;;;13.80;99.90;17.20;99457.00;;;;5040520;28;20649;-80
2023/10/30 11:54:02;;;;;;;0.90;0.90;;;14.00;99.90;17.50;99449.00;;;;5042083;28;20270;-80
2023/10/30 11:56:31;;;;;;;0.90;0.90;;;14.10;99.90;17.00;99477.00;;;;5041169;28;20195;-79
2023/10/30 11:58:57;;;;;;;3.37;3.07;;;13.90;99.90;17.50;99458.00;;;;5043406;28;20549;-80
2023/10/30 12:01:58;;;;;;;2.10;2.00;;;14.10;99.90;17.50;99472.00;;;;5026313;28;20638;-80
2023/10/30 12:05:06;;;;;;;1.00;1.00;;;14.10;99.90;17.50;99458.00;;;;5029097;28;20634;-80
2023/10/30 12:08:16;;;;;;;0.90;0.90;;;14.30;99.90;18.00;99456.00;;;;5017753;28;20187;-80
2023/10/30 12:11:00;;;;;;;0.90;0.90;;;14.30;99.90;18.00;99411.00;;;;5016941;28;20192;-80
2023/10/30 12:13:51;;;;;;;1.87;1.87;;;14.40;99.90;18.60;99416.00;;;;5029753;28;20272;-79
2023/10/30 12:16:54;;;;;;;1.07;1.07;;;14.70;99.90;17.30;99433.00;;;;5017540;28;20187;-72
2023/10/30 12:19:28;;;;;;;1.00;1.00;;;14.40;99.90;18.10;99454.00;;;;5041689;28;20205;-80
2023/10/30 12:22:54;;;;;;;1.10;1.10;;;14.50;99.90;18.00;99412.00;;;;5034026;28;20274;-79
2023/10/30 12:26:19;;;;;;;1.77;1.70;;;14.60;99.90;17.90;99438.00;;;;5024084;28;20649;-79
2023/10/30 12:29:02;;;;;;;1.20;1.20;;;14.50;99.90;18.60;99426.00;;;;5014063;28;20187;-79
2023/10/30 12:32:08;;;;;;;1.30;1.30;;;14.70;99.90;18.30;99407.00;;;;5034766;28;20734;-79
2023/10/30 12:35:08;;;;;;;1.50;1.50;;;14.70;99.90;17.30;99432.00;;;;5034996;28;20221;-79
2023/10/30 12:37:57;;;;;;;1.20;1.20;;;14.60;99.90;18.10;99444.00;;;;5029629;28;20234;-79
2023/10/30 12:40:25;;;;;;;1.17;1.17;;;14.50;99.90;17.40;99422.00;;;;5017683;28;20249;-79
2023/10/30 12:43:08;;;;;;;1.20;1.20;;;14.50;99.90;17.90;99433.00;;;;5033249;28;20195;-80
2023/10/30 12:45:45;;;;;;;1.20;1.20;;;14.50;99.90;17.90;99430.00;;;;5030524;28;20184;-80
2023/10/30 12:48:33;;;;;;;1.27;1.27;;;14.50;99.90;18.20;99380.00;;;;5049266;28;20184;-80
2023/10/30 12:50:59;;;;;;;1.20;1.20;;;14.60;99.90;17.50;99397.00;;;;5020394;28;20198;-80
2023/10/30 12:53:25;;;;;;;1.20;1.20;;;14.40;99.90;18.30;99405.00;;;;5049757;28;20245;-80
2023/10/30 12:55:59;;;;;;;1.30;1.30;;;14.60;99.90;18.10;99412.00;;;;5032478;28;20190;-80
2023/10/30 12:58:27;;;;;;;1.40;1.40;;;14.50;99.90;17.90;99385.00;;;;5015224;28;20266;-80
2023/10/30 13:01:16;;;;;;;1.40;1.40;;;14.50;99.90;17.50;99402.00;;;;5033017;28;20187;-80
2023/10/30 13:03:44;;;;;;;1.43;1.43;;;14.20;99.90;18.10;99378.00;;;;5012313;28;20192;-80
2023/10/30 13:06:17;;;;;;;3.73;3.50;;;14.40;99.90;18.10;99369.00;;;;5017344;28;20195;-79
2023/10/30 13:09:04;;;;;;;1.60;1.60;;;14.40;99.90;18.00;99389.00;;;;5027544;28;20217;-79
2023/10/30 13:11:30;;;;;;;2.03;2.03;;;14.40;99.90;17.80;99403.00;;;;5033348;28;20283;-80
2023/10/30 13:13:58;;;;;;;1.60;1.60;;;14.30;99.90;17.60;99381.00;;;;5031650;28;20536;-79
2023/10/30 13:16:26;;;;;;;1.73;1.73;;;14.20;99.90;17.50;99383.00;;;;5007186;28;20186;-80
2023/10/30 13:19:00;;;;;;;1.70;1.70;;;14.20;99.90;18.00;99369.00;;;;5033792;28;20657;-79
2023/10/30 13:21:26;;;;;;;1.60;1.60;;;14.30;99.90;17.70;99386.00;;;;5031125;28;20190;-79
2023/10/30 13:23:52;;;;;;;2.30;2.27;;;14.30;99.90;17.70;99378.00;;;;5032676;28;20183;-79
2023/10/30 13:26:18;;;;;;;1.97;1.97;;;14.20;99.90;17.60;99384.00;;;;5032986;28;20194;-79
2023/10/30 13:28:44;;;;;;;2.10;2.00;;;14.20;99.90;17.50;99339.00;;;;5032270;28;20237;-79
2023/10/30 13:31:10;;;;;;;2.10;2.10;;;14.10;99.90;17.70;99348.00;;;;5031923;28;20268;-80
2023/10/30 13:33:36;;;;;;;1.80;1.80;;;14.10;99.90;17.90;99376.00;;;;5033784;28;20341;-79
2023/10/30 13:36:05;;;;;;;1.97;1.97;;;14.30;99.90;17.50;99371.00;;;;5015905;28;20198;-80
2023/10/30 13:38:31;;;;;;;1.90;1.90;;;14.30;99.90;17.30;99370.00;;;;5033491;28;20187;-80
2023/10/30 13:41:02;;;;;;;1.70;1.70;;;14.10;99.90;17.30;99375.00;;;;5032671;28;20175;-80
2023/10/30 13:43:31;;;;;;;1.83;1.83;;;13.90;99.90;17.00;99368.00;;;;5031733;28;20291;-79
2023/10/30 13:45:57;;;;;;;1.60;1.60;;;13.80;99.90;16.80;99359.00;;;;5015810;28;20183;-79
2023/10/30 13:48:25;;;;;;;1.70;1.70;;;13.70;99.90;17.50;99343.00;;;;5034735;28;20196;-79
2023/10/30 13:50:51;;;;;;;1.90;1.90;;;13.80;99.90;17.90;99311.00;;;;5063578;28;20668;-79
2023/10/30 13:53:20;;;;;;;1.73;1.73;;;14.00;99.90;17.30;99339.00;;;;5031110;28;20683;-79
2023/10/30 13:55:46;;;;;;;1.80;1.80;;;13.90;99.90;17.30;99335.00;;;;5031459;28;20185;-79
2023/10/30 13:58:12;;;;;;;1.80;1.80;;;13.80;99.90;17.20;99328.00;;;;5032152;28;20183;-79
2023/10/30 14:00:41;;;;;;;1.70;1.70;;;13.80;99.90;17.00;99328.00;;;;5032431;28;20187;-79
2023/10/30 14:03:19;;;;;;;1.60;1.60;;;13.70;99.90;17.10;99330.00;;;;5032435;28;20194;-79
2023/10/30 14:05:55;;;;;;;1.50;1.50;;;13.70;99.90;16.90;99283.00;;;;5030812;28;20187;-79
2023/10/30 14:08:21;;;;;;;1.40;1.40;;;13.50;99.90;16.60;99311.00;;;;5061508;28;20284;-78
2023/10/30 14:10:53;;;;;;;1.73;1.70;;;13.60;99.90;15.60;99270.00;;;;5030851;28;20197;-78
2023/10/30 14:14:06;;;;;;;1.20;1.20;;;13.30;99.90;17.10;99322.00;;;;5017472;28;20237;-78
2023/10/30 14:17:16;;;;;;;1.10;1.10;;;13.30;99.90;16.30;99317.00;;;;5013788;28;20239;-78
2023/10/30 14:20:26;;;;;;;1.20;1.20;;;13.30;99.90;16.20;99307.00;;;;5032240;28;20192;-78
2023/10/30 14:23:50;;;;;;;1.30;1.30;;;13.30;99.90;16.30;99299.00;;;;5031050;28;20202;-78
2023/10/30 14:26:44;;;;;;;1.33;1.33;;;13.10;99.90;15.80;99265.00;;;;5014933;28;20185;-78
2023/10/30 14:29:48;;;;;;;1.30;1.30;;;13.00;99.90;16.30;99306.00;;;;5031674;28;20186;-78
2023/10/30 14:33:11;;;;;;;1.13;1.13;;;13.10;99.90;17.00;99280.00;;;;5021279;28;20233;-78
2023/10/30 14:36:20;;;;;;;1.30;1.30;;;13.50;99.90;16.60;99276.00;;;;5022491;28;20198;-78
2023/10/30 14:39:11;;;;;;;1.30;1.30;;;13.50;99.90;16.10;99226.00;;;;5025207;28;20208;-78
2023/10/30 14:42:22;;;;;;;1.00;1.00;;;13.20;99.90;15.90;99231.00;;;;5029766;28;20353;-78
2023/10/30 14:45:16;;;;;;;1.00;1.00;;;13.20;99.90;15.90;99270.00;;;;5026669;28;20199;-78
2023/10/30 14:48:14;;;;;;;1.10;1.10;;;13.10;99.90;15.70;99275.00;;;;5029717;28;20202;-78
2023/10/30 14:51:32;;;;;;;4.03;3.63;;;13.00;99.90;15.80;99269.00;;;;5030149;28;20533;-78
2023/10/30 14:54:49;;;;;;;1.83;1.73;;;12.90;99.90;16.40;99265.00;;;;5014059;28;20232;-77
2023/10/30 14:57:55;;;;;;;1.00;1.00;;;13.10;99.90;16.00;99253.00;;;;5020691;28;20190;-77
2023/10/30 15:01:04;;;;;;;4.53;1.20;;;13.20;99.90;15.90;99240.00;;;;5014735;28;20344;-77
2023/10/30 15:03:59;;;;;;;1.00;1.00;;;13.20;99.90;16.30;99257.00;;;;5022963;28;20197;-76
2023/10/30 15:10:39;;;;;;;1.10;1.10;;;13.30;99.90;16.40;99252.00;;;;5029782;28;20194;-77
2023/10/30 15:13:35;;;;;;;1.20;1.20;;;13.40;99.90;17.00;99238.00;;;;5047564;28;20280;-77
2023/10/30 15:16:46;;;;;;;1.40;1.40;;;13.40;99.90;17.50;99232.00;;;;5016651;28;20197;-77
2023/10/30 15:19:52;;;;;;;2.33;2.23;;;13.80;99.90;17.60;99239.00;;;;5032786;28;20271;-78
2023/10/30 15:22:21;;;;;;;1.30;1.30;;;14.00;99.90;17.30;99229.00;;;;5017339;28;20193;-79
2023/10/30 15:25:04;;;;;;;1.93;1.93;;;13.90;99.90;17.40;99230.00;;;;5043232;28;20173;-77
2023/10/30 15:27:39;;;;;;;1.60;1.60;;;13.80;99.90;17.00;99213.00;;;;5042222;28;20185;-72
2023/10/30 15:30:07;;;;;;;1.50;1.50;;;13.70;99.90;16.80;99228.00;;;;5046415;28;20181;-77
2023/10/30 15:32:41;;;;;;;1.93;1.93;;;13.70;99.90;16.20;99208.00;;;;5044609;28;20214;-74
2023/10/30 15:35:11;;;;;;;1.93;1.83;;;13.40;99.90;16.30;99217.00;;;;5026092;28;20601;-74
2023/10/30 15:37:37;;;;;;;1.30;1.30;;;13.40;99.90;17.00;99218.00;;;;5043003;28;20209;-72
2023/10/30 15:40:05;;;;;;;2.07;2.03;;;13.60;99.90;16.60;99215.00;;;;5044500;28;20193;-73
2023/10/30 15:42:52;;;;;;;3.33;3.13;;;13.60;99.90;17.20;99208.00;;;;5025803;28;20200;-71
2023/10/30 15:45:20;;;;;;;1.20;1.20;;;13.70;99.90;17.10;99189.00;;;;5026536;28;20189;-71
2023/10/30 15:47:46;;;;;;;1.40;1.40;;;13.70;99.90;16.80;99216.00;;;;5042583;28;20186;-72
2023/10/30 15:50:12;;;;;;;1.40;1.40;;;13.70;99.90;16.10;99212.00;;;;5027659;28;20645;-72
2023/10/30 15:52:38;;;;;;;1.37;1.37;;;13.50;99.90;16.20;99207.00;;;;5043138;28;20263;-71
2023/10/30 15:55:04;;;;;;;1.63;1.53;;;13.40;99.90;16.80;99214.00;;;;5043434;28;20179;-71
2023/10/30 15:57:31;;;;;;;1.40;1.40;;;13.50;99.90;17.40;99203.00;;;;5043574;28;20188;-72
2023/10/30 15:59:57;;;;;;;1.60;1.60;;;13.60;99.90;17.70;99202.00;;;;5059222;28;20190;-72
2023/10/30 16:02:25;;;;;;;1.70;1.70;;;13.90;99.90;17.10;99203.00;;;;5056864;28;20647;-72
2023/10/30 16:04:51;;;;;;;2.17;2.03;;;13.80;99.90;16.70;99198.00;;;;5043199;28;20559;-72
2023/10/30 16:07:17;;;;;;;1.50;1.50;;;13.70;99.90;16.90;99194.00;;;;5042471;28;20187;-71
2023/10/30 16:09:44;;;;;;;1.80;1.80;;;13.60;99.90;17.10;99157.00;;;;5026133;28;20225;-71
2023/10/30 16:12:15;;;;;;;2.00;2.00;;;13.80;99.90;16.90;99190.00;;;;5026930;28;20210;-64
2023/10/30 16:14:42;;;;;;;2.00;2.00;;;13.60;99.90;16.80;99180.00;;;;5043042;28;20279;-68
2023/10/30 16:17:18;;;;;;;1.43;1.43;;;13.60;99.90;16.80;99181.00;;;;5042160;28;20192;-70
2023/10/30 16:19:44;;;;;;;1.70;1.67;;;13.60;99.90;17.00;99172.00;;;;5043585;28;20292;-72
2023/10/30 16:22:11;;;;;;;1.90;1.80;;;13.60;99.90;16.70;99156.00;;;;5042188;28;20652;-70
2023/10/30 16:24:37;;;;;;;1.50;1.50;;;13.70;99.90;16.90;99171.00;;;;5042710;28;20556;-71
2023/10/30 16:27:26;;;;;;;1.80;1.80;;;13.60;99.90;17.30;99166.00;;;;5041762;28;20176;-70
2023/10/30 16:29:51;;;;;;;1.70;1.60;;;13.70;99.90;17.60;99130.00;;;;5041044;28;20195;-70
2023/10/30 16:32:22;;;;;;;2.87;2.77;;;13.90;99.90;16.90;99164.00;;;;5041795;28;20209;-70
2023/10/30 16:34:59;;;;;;;1.63;1.63;;;13.70;99.90;16.40;99166.00;;;;5042683;28;20196;-70
2023/10/30 16:37:25;;;;;;;1.83;1.77;;;13.60;99.90;16.30;99173.00;;;;5057565;28;20675;-69
2023/10/30 16:40:17;;;;;;;1.40;1.40;;;13.30;99.90;16.70;99162.00;;;;5042485;28;20264;-70
2023/10/30 16:43:20;;;;;;;1.30;1.30;;;13.40;99.90;16.10;99170.00;;;;5040921;28;20204;-70
2023/10/30 16:45:46;;;;;;;1.33;1.33;;;13.20;99.90;16.10;99175.00;;;;5041190;28;20190;-70
2023/10/30 16:48:12;;;;;;;1.50;1.50;;;13.20;99.90;17.20;99176.00;;;;5042639;28;20190;-70
2023/10/30 16:51:07;;;;;;;1.60;1.60;;;13.50;99.90;16.60;99185.00;;;;5040358;28;20201;-70
2023/10/30 16:53:48;;;;;;;1.50;1.50;;;13.50;99.90;16.60;99180.00;;;;5027942;28;20587;-70
2023/10/30 16:56:36;;;;;;;2.37;2.27;;;13.50;99.90;16.80;99182.00;;;;5026838;28;20198;-70
2023/10/30 16:59:03;;;;;;;1.40;1.40;;;13.50;99.90;16.70;99174.00;;;;5041471;28;20605;-70
2023/10/30 17:01:30;;;;;;;1.40;1.40;;;13.40;99.90;15.70;99167.00;;;;5042277;28;20207;-70
2023/10/30 17:03:56;;;;;;;1.90;1.50;;;13.30;99.90;15.60;99179.00;;;;5024768;28;20189;-70
2023/10/30 17:06:22;;;;;;;1.20;1.20;;;13.00;99.90;16.10;99182.00;;;;5041837;28;20194;-70
2023/10/30 17:08:48;;;;;;;1.10;1.10;;;13.10;99.90;16.20;99184.00;;;;5040140;28;20329;-70
2023/10/30 17:11:15;;;;;;;1.10;1.10;;;13.10;99.90;15.90;99187.00;;;;5041011;28;20693;-70
2023/10/30 17:13:47;;;;;;;1.00;1.00;;;13.00;99.90;16.00;99187.00;;;;5042998;28;20184;-70
2023/10/30 17:16:13;;;;;;;1.20;1.20;;;13.00;99.90;16.20;99196.00;;;;5041390;28;20187;-71
2023/10/30 17:18:41;;;;;;;3.23;3.07;;;13.10;99.90;15.70;99188.00;;;;5042340;28;20198;-70
2023/10/30 17:21:07;;;;;;;1.30;1.30;;;13.00;99.90;16.30;99181.00;;;;5042862;28;20190;-70
2023/10/30 17:23:33;;;;;;;1.07;1.07;;;13.20;99.90;16.10;99191.00;;;;5040630;28;20194;-70
2023/10/30 17:26:00;;;;;;;4.03;3.70;;;13.20;99.90;15.70;99180.00;;;;5041237;28;20201;-70
2023/10/30 17:28:25;;;;;;;1.27;1.27;;;13.00;99.90;15.70;99191.00;;;;5040435;28;20183;-70
2023/10/30 17:30:51;;;;;;;2.03;1.93;;;13.00;99.90;16.90;99197.00;;;;5024121;28;20186;-70
2023/10/30 17:33:18;;;;;;;1.20;1.20;;;13.20;99.90;16.50;99188.00;;;;5042115;28;20760;-70
2023/10/30 17:35:44;;;;;;;3.13;1.93;;;13.30;99.90;16.90;99190.00;;;;5042074;28;20204;-70
2023/10/30 17:38:09;;;;;;;1.10;1.10;;;13.50;99.90;16.20;99154.00;;;;5041471;28;20698;-70
2023/10/30 17:40:36;;;;;;;1.17;1.17;;;13.40;99.90;16.80;99152.00;;;;5041762;28;20207;-70
2023/10/30 17:43:03;;;;;;;1.40;1.30;;;13.50;99.90;16.50;99167.00;;;;5040235;28;20188;-70
2023/10/30 17:45:36;;;;;;;2.07;1.97;;;13.40;99.90;16.00;99152.00;;;;5022663;28;20205;-70
2023/10/30 17:48:03;;;;;;;1.93;1.83;;;13.30;99.90;15.90;99185.00;;;;5041267;28;20183;-70
2023/10/30 17:50:29;;;;;;;1.83;1.80;;;13.20;99.90;15.50;99189.00;;;;5039755;28;20192;-71
2023/10/30 17:52:55;;;;;;;2.20;2.07;;;13.00;99.90;15.50;99186.00;;;;5040612;28;20258;-70
2023/10/30 17:55:21;;;;;;;1.50;1.40;;;12.90;99.90;15.90;99198.00;;;;5040701;28;20223;-70
2023/10/30 17:57:52;;;;;;;1.70;1.60;;;12.90;99.90;15.40;99189.00;;;;5040849;28;20600;-70
2023/10/30 18:00:56;;;;;;;1.10;1.10;;;12.80;99.90;16.30;99129.00;;;;5016139;28;20199;-70
2023/10/30 18:03:47;;;;;;;1.10;1.07;;;12.90;99.90;15.60;99199.00;;;;5023872;28;20196;-70
2023/10/30 18:06:31;;;;;;;1.20;1.20;;;13.00;99.90;15.60;99186.00;;;;5031462;28;20238;-70
2023/10/30 18:09:04;;;;;;;2.20;2.10;;;13.00;99.90;15.70;99190.00;;;;5031355;28;20673;-71
2023/10/30 18:11:33;;;;;;;1.03;1.03;;;12.90;99.90;16.70;99174.00;;;;5032514;28;20774;-70
2023/10/30 18:14:01;;;;;;;1.30;1.30;;;13.10;99.90;16.60;99198.00;;;;5032461;28;20186;-71
2023/10/30 18:16:30;;;;;;;1.50;1.50;;;13.10;99.90;16.70;99196.00;;;;5041745;28;20224;-71
2023/10/30 18:19:17;;;;;;;1.57;1.57;;;13.20;99.90;17.10;99216.00;;;;5023882;28;20208;-70
2023/10/30 18:22:38;;;;;;;1.30;1.30;;;13.40;99.90;17.00;99212.00;;;;5064271;28;20284;-71
2023/10/30 18:25:59;;;;;;;1.33;1.33;;;13.50;99.90;17.60;99219.00;;;;5031698;28;20284;-71
2023/10/30 18:29:08;;;;;;;1.50;1.50;;;13.60;99.90;17.00;99205.00;;;;5037133;28;20202;-71
2023/10/30 18:31:54;;;;;;;1.43;1.43;;;13.70;99.90;17.00;99208.00;;;;5032514;28;20271;-71
2023/10/30 18:34:28;;;;;;;1.40;1.40;;;13.50;99.90;17.10;99210.00;;;;5031673;28;20180;-71
2023/10/30 18:37:26;;;;;;;1.50;1.50;;;13.40;99.90;17.50;99212.00;;;;5002360;28;20201;-71
2023/10/30 18:40:12;;;;;;;1.50;1.50;;;13.60;99.90;17.20;99206.00;;;;5023405;28;20212;-71
2023/10/30 18:43:06;;;;;;;5.60;5.10;;;13.60;99.90;16.70;99201.00;;;;5031209;28;20193;-71
2023/10/30 18:46:14;;;;;;;2.07;1.97;;;13.30;99.90;16.70;99207.00;;;;5030244;28;20176;-67
2023/10/30 18:49:00;;;;;;;10.03;5.40;;;13.30;99.90;17.10;99207.00;;;;5029737;28;20521;-72
2023/10/30 18:51:38;;;;;;;1.53;1.53;;;13.40;99.90;16.70;99205.00;;;;5027065;28;20194;-71
2023/10/30 18:54:34;;;;;;;2.23;2.13;;;13.30;99.90;16.20;99222.00;;;;5041753;28;20199;-71